Time;durP1;ratioP1;P1;durP2;ratioP2;P2;SDS_P1;SDS_P2;PMS_P1;PMS_P2;Temp;Humidity;BMP_temperature;BMP_pressure;BME280_temperature;BME280_humidity;BME280_pressure;Samples;Min_cycle;Max_cycle;Signal;HPM_P1;HPM_P2
2022/09/26 00:01:34;;;;;;;26.38;18.05;;;8.30;99.90;;;7.32;100.00;97361.88;6174464;23;20464;-76
2022/09/26 00:04:06;;;;;;;23.90;16.23;;;8.30;99.90;;;7.30;100.00;97362.81;6183354;23;20617;-75
2022/09/26 00:06:34;;;;;;;26.50;14.85;;;8.30;99.90;;;7.30;100.00;97368.81;6174578;23;20021;-75
2022/09/26 00:09:00;;;;;;;20.45;15.40;;;8.30;99.90;;;7.31;100.00;97374.81;6159841;23;20111;-76
2022/09/26 00:11:32;;;;;;;31.75;19.98;;;8.30;99.90;;;7.19;100.00;97378.66;6174298;23;20568;-75
2022/09/26 00:14:04;;;;;;;29.75;15.20;;;8.30;99.90;;;7.20;100.00;97371.75;6173416;23;20025;-75
2022/09/26 00:16:31;;;;;;;22.40;16.30;;;8.20;99.90;;;7.16;100.00;97370.16;6148614;23;20021;-76
2022/09/26 00:18:58;;;;;;;20.92;13.27;;;8.20;99.90;;;7.06;100.00;97370.44;6182953;23;20675;-76
2022/09/26 00:21:28;;;;;;;18.33;13.20;;;8.20;99.90;;;7.10;100.00;97359.16;6173592;23;20092;-75
2022/09/26 00:23:57;;;;;;;18.75;11.05;;;8.20;99.90;;;7.13;100.00;97368.53;6172958;23;20376;-75
2022/09/26 00:26:27;;;;;;;19.50;14.23;;;8.10;99.90;;;7.12;100.00;97372.00;6173550;23;20032;-75
2022/09/26 00:28:54;;;;;;;21.98;14.10;;;8.10;99.90;;;7.13;100.00;97371.09;6150403;23;20060;-75
2022/09/26 00:31:29;;;;;;;19.50;15.25;;;8.00;99.90;;;7.09;100.00;97361.75;6183446;23;20024;-75
2022/09/26 00:33:56;;;;;;;23.05;16.15;;;8.10;99.90;;;7.03;100.00;97361.97;6183250;23;20025;-75
2022/09/26 00:36:24;;;;;;;15.98;11.52;;;8.10;99.90;;;7.16;100.00;97357.25;6183298;23;20024;-75
2022/09/26 00:39:04;;;;;;;20.23;14.02;;;8.10;99.90;;;7.13;100.00;97360.78;6169332;23;20707;-76
2022/09/26 00:41:31;;;;;;;17.83;14.13;;;8.00;99.90;;;7.04;100.00;97356.75;6171310;23;20099;-76
2022/09/26 00:43:57;;;;;;;16.73;12.07;;;8.00;99.90;;;7.02;100.00;97362.84;6176901;23;20040;-75
2022/09/26 00:46:31;;;;;;;20.58;13.82;;;8.00;99.90;;;7.02;100.00;97360.28;6170251;23;20539;-74
2022/09/26 00:49:23;;;;;;;15.57;12.52;;;8.00;99.90;;;7.01;100.00;97351.69;6174988;23;20179;-75
2022/09/26 00:52:13;;;;;;;14.73;10.75;;;8.00;99.90;;;7.11;100.00;97347.06;6173667;23;20032;-74
2022/09/26 00:54:45;;;;;;;19.05;12.85;;;7.90;99.90;;;7.08;100.00;97348.03;6177446;23;20035;-75
2022/09/26 00:57:30;;;;;;;14.55;7.72;;;7.90;99.90;;;6.97;100.00;97346.69;6173276;23;20734;-74
2022/09/26 01:00:07;;;;;;;20.88;12.18;;;7.90;99.90;;;6.98;100.00;97340.63;6172190;23;20024;-74
2022/09/26 01:02:34;;;;;;;20.00;14.02;;;7.90;99.90;;;6.90;100.00;97339.13;6173264;23;20021;-74
2022/09/26 01:05:04;;;;;;;19.77;13.30;;;7.90;99.90;;;6.84;100.00;97341.06;6172697;23;20096;-75
2022/09/26 01:07:33;;;;;;;19.17;14.43;;;7.90;99.90;;;6.84;100.00;97339.34;6149548;23;20349;-74
2022/09/26 01:10:04;;;;;;;16.40;13.38;;;7.90;99.90;;;6.81;100.00;97344.56;6173921;23;20035;-75
2022/09/26 01:12:34;;;;;;;14.27;11.05;;;7.80;99.90;;;6.81;100.00;97344.56;6173628;23;20047;-75
2022/09/26 01:15:01;;;;;;;20.30;12.68;;;7.80;99.90;;;6.80;100.00;97342.91;6172153;23;20068;-74
2022/09/26 01:17:29;;;;;;;14.25;11.15;;;7.80;99.90;;;6.89;100.00;97334.03;6172741;23;20449;-75
2022/09/26 01:20:37;;;;;;;13.70;10.52;;;7.80;99.90;;;6.86;100.00;97334.94;6148806;23;20020;-74
2022/09/26 01:23:44;;;;;;;15.23;9.43;;;7.80;99.90;;;6.84;100.00;97325.56;6185042;23;20021;-74
2022/09/26 01:26:26;;;;;;;16.52;10.80;;;7.80;99.90;;;6.80;100.00;97317.09;6168406;23;20083;-74
2022/09/26 01:29:41;;;;;;;17.20;10.45;;;7.70;99.90;;;6.80;100.00;97318.84;6173955;23;20031;-74
2022/09/26 01:35:46;;;;;;;21.08;11.93;;;7.70;99.90;;;6.74;100.00;97316.44;6174956;23;20032;-74
2022/09/26 01:38:43;;;;;;;14.88;10.80;;;7.70;99.90;;;6.75;100.00;97312.97;6177347;23;20462;-75
2022/09/26 01:41:49;;;;;;;19.90;7.70;;;7.70;99.90;;;6.78;100.00;97307.72;6179092;23;20036;-75
2022/09/26 01:44:19;;;;;;;12.50;8.77;;;7.80;99.90;;;6.83;100.00;97313.59;6186297;23;20076;-75
2022/09/26 01:47:11;;;;;;;14.25;8.15;;;7.70;99.90;;;6.74;100.00;97303.56;6185522;23;20100;-75
2022/09/26 01:50:01;;;;;;;12.35;7.93;;;7.70;99.90;;;6.81;100.00;97302.47;6187919;23;20073;-75
2022/09/26 01:52:45;;;;;;;14.00;9.88;;;7.70;99.90;;;6.67;100.00;97303.75;6185872;23;20048;-75
2022/09/26 01:55:24;;;;;;;15.25;7.28;;;7.70;99.90;;;6.88;100.00;97296.22;6172318;23;20112;-75
2022/09/26 01:58:17;;;;;;;16.15;8.63;;;7.70;99.90;;;6.81;100.00;97284.41;6191215;23;20025;-74
2022/09/26 02:00:48;;;;;;;12.00;7.97;;;7.70;99.90;;;6.82;100.00;97268.03;6166532;23;20089;-74
2022/09/26 02:03:19;;;;;;;12.00;8.45;;;7.60;99.90;;;6.64;100.00;97267.75;6147789;23;20056;-75
2022/09/26 02:06:09;;;;;;;16.08;8.82;;;7.60;99.90;;;6.61;100.00;97265.25;6183907;23;20429;-74
2022/09/26 02:08:46;;;;;;;11.38;7.13;;;7.60;99.90;;;6.49;100.00;97257.91;6174680;23;20520;-74
2022/09/26 02:11:17;;;;;;;14.52;9.35;;;7.60;99.90;;;6.48;100.00;97258.81;6149459;23;20535;-75
2022/09/26 02:14:08;;;;;;;13.35;8.82;;;7.60;99.90;;;6.42;100.00;97254.66;6183723;23;20131;-75
2022/09/26 02:16:41;;;;;;;9.27;7.68;;;7.50;99.90;;;6.45;100.00;97252.03;6171674;23;20020;-75
2022/09/26 02:19:21;;;;;;;12.85;7.95;;;7.40;99.90;;;6.45;100.00;97246.00;6150053;23;20021;-74
2022/09/26 02:21:48;;;;;;;10.32;7.25;;;7.40;99.90;;;6.52;100.00;97242.31;6174189;23;20021;-74
2022/09/26 02:24:15;;;;;;;13.35;7.55;;;7.30;99.90;;;6.41;100.00;97242.69;6146805;23;20021;-75
2022/09/26 02:26:42;;;;;;;14.18;9.05;;;7.30;99.90;;;6.32;100.00;97239.53;6149788;23;20456;-75
2022/09/26 02:29:12;;;;;;;12.02;8.20;;;7.30;99.90;;;6.32;100.00;97237.81;6173181;23;20028;-75
2022/09/26 02:31:48;;;;;;;10.77;8.77;;;7.30;99.90;;;6.36;100.00;97230.81;6171550;23;20028;-74
2022/09/26 02:34:15;;;;;;;12.85;7.97;;;7.30;99.90;;;6.33;100.00;97226.59;6147692;23;20025;-74
2022/09/26 02:36:43;;;;;;;16.00;8.60;;;7.30;99.90;;;6.34;100.00;97219.72;6147997;23;20029;-74
2022/09/26 02:39:10;;;;;;;11.02;9.00;;;7.30;99.90;;;6.33;100.00;97210.31;6171998;23;20400;-75
2022/09/26 02:42:08;;;;;;;16.08;8.43;;;7.30;99.90;;;6.38;100.00;97216.16;6173689;23;20159;-74
2022/09/26 02:45:14;;;;;;;13.35;9.05;;;7.40;99.90;;;6.31;100.00;97212.06;6171935;23;20028;-74
2022/09/26 02:48:06;;;;;;;13.43;8.35;;;7.40;99.90;;;6.34;100.00;97207.69;6175169;23;20352;-75
2022/09/26 02:50:36;;;;;;;13.23;9.25;;;7.40;99.90;;;6.35;100.00;97203.38;6176100;23;20032;-74
2022/09/26 02:53:59;;;;;;;11.45;8.82;;;7.30;99.90;;;6.27;100.00;97193.28;6181904;23;20060;-75
2022/09/26 02:56:49;;;;;;;15.70;8.95;;;7.30;99.90;;;6.25;100.00;97188.19;6088431;23;20026;-74
2022/09/26 02:59:30;;;;;;;14.65;7.88;;;7.30;99.90;;;6.27;100.00;97180.38;6146476;23;20491;-74
2022/09/26 03:02:28;;;;;;;12.13;7.70;;;7.40;99.90;;;6.25;100.00;97175.31;6174360;23;20025;-74
2022/09/26 03:05:10;;;;;;;12.32;8.55;;;7.30;99.90;;;6.24;100.00;97175.34;6173230;23;20463;-74
2022/09/26 03:07:50;;;;;;;13.38;8.63;;;7.30;99.90;;;6.17;100.00;97164.38;6173835;23;20036;-74
2022/09/26 03:10:19;;;;;;;11.77;7.38;;;7.30;99.90;;;6.18;100.00;97165.22;6148892;23;20108;-75
2022/09/26 03:12:46;;;;;;;13.27;8.40;;;7.30;99.90;;;6.19;100.00;97157.44;6173488;23;20021;-74
2022/09/26 03:15:16;;;;;;;15.27;8.23;;;7.20;99.90;;;6.13;100.00;97167.09;6175372;23;20027;-74
2022/09/26 03:17:50;;;;;;;10.82;7.82;;;7.20;99.90;;;6.13;100.00;97159.38;6149260;23;20043;-75
2022/09/26 03:20:21;;;;;;;9.77;7.57;;;7.20;99.90;;;6.12;100.00;97153.38;6147836;23;20013;-75
2022/09/26 03:22:49;;;;;;;14.68;8.95;;;7.20;99.90;;;6.07;100.00;97153.53;6172125;23;20046;-75
2022/09/26 03:25:22;;;;;;;12.55;5.97;;;7.20;99.90;;;6.10;100.00;97154.31;6172720;23;20524;-74
2022/09/26 03:27:50;;;;;;;;;;;7.20;99.90;;;6.14;100.00;97146.44;6161038;23;20031;-74
2022/09/26 03:30:20;;;;;;;10.05;5.00;;;7.20;99.90;;;6.15;100.00;97147.28;6150784;23;20390;-75
2022/09/26 03:32:47;;;;;;;12.50;8.40;;;7.20;99.90;;;6.17;100.00;97148.91;6173694;23;20107;-74
2022/09/26 03:35:15;;;;;;;11.15;7.35;;;7.20;99.90;;;6.21;100.00;97136.78;6149408;23;20024;-74
2022/09/26 03:37:42;;;;;;;9.18;6.70;;;7.20;99.90;;;6.19;100.00;97134.25;6175910;23;20240;-74
2022/09/26 03:40:11;;;;;;;11.63;7.85;;;7.20;99.90;;;6.13;100.00;97137.03;6173736;23;20519;-75
2022/09/26 03:42:39;;;;;;;16.55;10.77;;;7.20;99.90;;;6.13;100.00;97136.19;6184672;23;20056;-75
2022/09/26 03:45:09;;;;;;;15.23;10.43;;;7.10;99.90;;;6.12;100.00;97137.09;6174099;23;20049;-74
2022/09/26 03:47:40;;;;;;;19.65;9.18;;;7.20;99.90;;;6.11;100.00;97137.97;6172778;23;20021;-75
2022/09/26 03:50:08;;;;;;;14.32;8.38;;;7.10;99.90;;;6.06;100.00;97130.38;6177538;23;20025;-75
2022/09/26 03:52:35;;;;;;;11.63;9.20;;;7.10;99.90;;;6.07;100.00;97132.91;6174779;23;20021;-74
2022/09/26 03:55:04;;;;;;;16.50;8.52;;;7.10;99.90;;;6.08;100.00;97126.84;6174314;23;20041;-74
2022/09/26 03:57:30;;;;;;;14.77;9.40;;;7.20;99.90;;;6.06;100.00;97115.75;6150137;23;20017;-75
2022/09/26 03:59:57;;;;;;;13.43;9.38;;;7.20;99.90;;;6.12;100.00;97116.47;6174938;23;20018;-74
2022/09/26 04:02:24;;;;;;;11.32;7.28;;;7.20;99.90;;;6.17;100.00;97107.69;6174445;23;20032;-75
2022/09/26 04:04:52;;;;;;;11.15;7.90;;;7.20;99.90;;;6.32;100.00;97114.09;6150545;23;20060;-75
2022/09/26 04:07:19;;;;;;;14.52;7.60;;;7.30;99.90;;;6.37;100.00;97113.94;6177286;23;20033;-74
2022/09/26 04:09:45;;;;;;;11.32;7.15;;;7.30;99.90;;;6.50;100.00;97099.75;6174617;23;20036;-74
2022/09/26 04:12:12;;;;;;;10.93;6.93;;;7.40;99.90;;;6.59;100.00;97095.97;6175861;23;20025;-74
2022/09/26 04:14:40;;;;;;;14.57;7.03;;;7.50;99.90;;;6.67;100.00;97087.09;6176805;23;20029;-75
2022/09/26 04:17:07;;;;;;;8.95;5.63;;;7.50;99.90;;;6.65;100.00;97086.31;6182840;23;20111;-75
2022/09/26 04:19:34;;;;;;;13.30;6.40;;;7.60;99.90;;;6.67;100.00;97083.69;6175798;23;20061;-75
2022/09/26 04:22:01;;;;;;;10.43;6.20;;;7.60;99.90;;;6.69;100.00;97076.75;6185508;23;20017;-75
2022/09/26 04:24:28;;;;;;;9.05;6.10;;;7.60;99.90;;;6.72;100.00;97050.81;6174598;23;20027;-74
2022/09/26 04:26:56;;;;;;;10.85;6.65;;;7.60;99.90;;;6.74;100.00;97046.47;6150059;23;20028;-74
2022/09/26 04:29:23;;;;;;;9.85;6.28;;;7.60;99.90;;;6.79;100.00;97043.72;6173910;23;20746;-75
2022/09/26 04:31:50;;;;;;;11.32;6.05;;;7.70;99.90;;;6.90;100.00;97036.44;6176206;23;20025;-74
2022/09/26 04:34:18;;;;;;;11.52;5.97;;;7.70;99.90;;;6.90;100.00;97029.53;6172807;23;20829;-74
2022/09/26 04:36:52;;;;;;;8.27;6.10;;;7.80;99.90;;;6.92;100.00;97021.72;6174201;23;20029;-74
2022/09/26 04:39:19;;;;;;;10.73;6.50;;;7.80;99.90;;;6.98;100.00;97008.63;6173839;23;20456;-75
2022/09/26 04:41:46;;;;;;;12.27;6.60;;;7.80;99.90;;;6.90;100.00;97008.03;6185523;23;20024;-75
2022/09/26 04:44:14;;;;;;;11.40;6.93;;;7.80;99.90;;;7.01;100.00;97002.50;6185066;23;20051;-75
2022/09/26 04:46:41;;;;;;;9.18;6.00;;;7.80;99.90;;;6.78;100.00;97003.34;6175948;23;20028;-75
2022/09/26 04:49:08;;;;;;;15.27;6.90;;;7.90;99.90;;;6.80;100.00;96998.97;6177567;23;20298;-75
2022/09/26 04:51:35;;;;;;;15.02;7.50;;;7.90;99.90;;;6.86;100.00;96996.16;6186502;23;20091;-74
2022/09/26 04:54:02;;;;;;;12.65;7.72;;;7.90;99.90;;;6.78;100.00;96986.13;6175009;23;20021;-75
2022/09/26 04:56:30;;;;;;;11.68;7.10;;;7.80;99.90;;;6.69;100.00;96984.72;6177507;23;20168;-75
2022/09/26 04:59:01;;;;;;;10.40;7.03;;;7.80;99.90;;;6.78;100.00;96982.72;6174886;23;20047;-75
2022/09/26 05:01:28;;;;;;;11.18;7.43;;;7.80;99.90;;;6.69;100.00;96991.63;6175574;23;20020;-75
2022/09/26 05:03:57;;;;;;;11.13;7.57;;;7.70;99.90;;;6.67;100.00;96983.94;6174281;23;20040;-74
2022/09/26 05:06:24;;;;;;;13.80;8.65;;;7.70;99.90;;;6.63;100.00;96981.53;6151568;23;20715;-74
2022/09/26 05:08:51;;;;;;;13.73;8.07;;;7.70;99.90;;;6.62;100.00;96982.44;6176104;23;20570;-74
2022/09/26 05:11:20;;;;;;;11.02;8.30;;;7.60;99.90;;;6.58;100.00;96981.69;6174171;23;20036;-74
2022/09/26 05:13:49;;;;;;;10.02;6.82;;;7.60;99.90;;;6.54;100.00;96977.53;6177022;23;20025;-74
2022/09/26 05:16:20;;;;;;;13.98;8.75;;;7.60;99.90;;;6.47;100.00;96978.66;6177182;23;20020;-74
2022/09/26 05:18:51;;;;;;;16.35;10.07;;;7.60;99.90;;;6.48;100.00;96970.03;6175392;23;20040;-75
2022/09/26 05:21:18;;;;;;;16.50;10.25;;;7.60;99.90;;;6.44;100.00;96971.03;6149885;23;20017;-74
2022/09/26 05:26:59;;;;;;;13.15;8.43;;;7.50;99.90;;;6.52;100.00;96983.66;6176376;23;20427;-75
2022/09/26 05:29:26;;;;;;;16.48;9.13;;;7.50;99.90;;;6.47;100.00;96988.97;6149964;23;20438;-77
2022/09/26 05:31:53;;;;;;;14.43;8.98;;;7.50;99.90;;;6.49;100.00;96982.03;6173142;23;20072;-75
2022/09/26 05:34:24;;;;;;;14.18;8.77;;;7.50;99.90;;;6.54;100.00;96977.53;6146653;23;20081;-75
2022/09/26 05:36:52;;;;;;;11.95;9.20;;;7.50;99.90;;;6.49;100.00;96976.88;6177603;23;20021;-75
2022/09/26 05:42:08;;;;;;;14.70;9.10;;;7.50;99.90;;;6.56;100.00;96978.31;6173197;23;20361;-75
2022/09/26 05:44:35;;;;;;;17.02;8.55;;;7.50;99.90;;;6.56;100.00;96980.91;6176161;23;20035;-75
2022/09/26 05:47:02;;;;;;;15.65;8.68;;;7.50;99.90;;;6.49;100.00;96966.56;6173604;23;20031;-74
2022/09/26 05:49:29;;;;;;;10.85;7.13;;;7.50;99.90;;;6.61;100.00;96963.53;6174467;23;20076;-74
2022/09/26 05:51:56;;;;;;;22.27;9.77;;;7.50;99.90;;;6.49;100.00;96975.13;6149888;23;20111;-74
2022/09/26 05:54:23;;;;;;;10.25;7.28;;;7.50;99.90;;;6.53;100.00;96981.03;6173456;23;20036;-75
2022/09/26 05:56:49;;;;;;;13.95;8.88;;;7.60;99.90;;;6.53;100.00;96981.03;6150534;23;20017;-74
2022/09/26 05:59:17;;;;;;;11.70;7.93;;;7.50;99.90;;;6.55;100.00;96968.94;6174388;23;20429;-75
2022/09/26 06:01:45;;;;;;;13.98;8.82;;;7.60;99.90;;;6.53;100.00;96972.47;6173580;23;20062;-74
2022/09/26 06:04:12;;;;;;;14.52;8.32;;;7.50;99.90;;;6.57;100.00;96968.84;6175018;23;20076;-74
2022/09/26 06:06:43;;;;;;;12.35;8.20;;;7.60;99.90;;;6.58;100.00;96967.97;6172482;23;20097;-74
2022/09/26 06:09:10;;;;;;;12.25;8.52;;;7.60;99.90;;;6.63;100.00;96976.38;6147476;23;20075;-75
2022/09/26 06:11:36;;;;;;;16.42;9.27;;;7.60;99.90;;;6.64;100.00;96971.16;6173013;23;20282;-74
2022/09/26 06:14:03;;;;;;;18.67;10.05;;;7.70;99.90;;;6.69;100.00;96973.56;6172194;23;20029;-75
2022/09/26 06:16:31;;;;;;;16.92;10.60;;;7.80;99.90;;;6.70;100.00;96970.09;6174420;23;20028;-74
2022/09/26 06:18:59;;;;;;;16.85;9.57;;;7.80;99.90;;;6.75;100.00;96967.34;6171544;23;20072;-75
2022/09/26 06:21:26;;;;;;;17.90;10.75;;;7.80;99.90;;;6.75;100.00;96967.34;6171901;23;20036;-75
2022/09/26 06:23:53;;;;;;;17.92;10.48;;;7.90;99.90;;;6.82;100.00;96968.78;6172504;23;20031;-75
2022/09/26 06:26:24;;;;;;;19.30;11.02;;;7.90;99.90;;;6.83;100.00;96962.75;6158336;23;20025;-74
2022/09/26 06:28:56;;;;;;;16.92;12.15;;;7.90;99.90;;;6.88;100.00;96969.41;6172470;23;20038;-75
2022/09/26 06:31:24;;;;;;;17.90;11.65;;;7.90;99.90;;;6.86;100.00;96953.13;6172794;23;20032;-74
2022/09/26 06:33:53;;;;;;;15.32;11.27;;;8.00;99.90;;;6.95;100.00;96959.69;6174063;23;20040;-74
2022/09/26 06:36:22;;;;;;;19.33;11.40;;;8.00;99.90;;;7.01;100.00;96951.72;6181714;23;20025;-75
2022/09/26 06:38:50;;;;;;;20.75;13.13;;;8.00;99.90;;;7.02;100.00;96952.56;6172426;23;20021;-75
2022/09/26 06:41:17;;;;;;;18.48;13.05;;;8.00;99.90;;;7.01;100.00;96948.31;6174409;23;20100;-75
2022/09/26 06:43:46;;;;;;;20.05;14.00;;;8.10;99.90;;;7.01;100.00;96948.31;6174128;23;20025;-75
2022/09/26 06:46:15;;;;;;;25.55;15.68;;;8.20;99.90;;;7.00;100.00;96947.47;6183821;23;20025;-75
2022/09/26 06:48:42;;;;;;;24.23;14.77;;;8.20;99.90;;;7.03;100.00;96952.50;6173247;23;20044;-75
2022/09/26 06:51:12;;;;;;;18.45;12.57;;;8.30;99.90;;;7.25;100.00;96949.94;6174107;23;20025;-75
2022/09/26 06:53:39;;;;;;;17.77;11.88;;;8.40;99.90;;;7.30;100.00;96947.19;6172711;23;20025;-74
2022/09/26 06:56:07;;;;;;;17.75;10.88;;;8.40;99.90;;;7.31;100.00;96943.69;6173144;23;20029;-75
2022/09/26 06:58:33;;;;;;;20.77;13.23;;;8.50;99.90;;;7.29;100.00;96940.31;6171660;23;20035;-75
2022/09/26 07:01:01;;;;;;;22.25;12.52;;;8.60;99.90;;;7.28;100.00;96931.75;6174546;23;20075;-74
2022/09/26 07:03:28;;;;;;;16.40;12.00;;;8.70;99.90;;;7.57;100.00;96927.13;6151054;23;20024;-76
2022/09/26 07:05:56;;;;;;;16.15;12.43;;;8.80;99.90;;;7.67;100.00;96927.63;6174644;23;20369;-74
2022/09/26 07:08:24;;;;;;;20.23;12.70;;;8.80;99.90;;;7.68;100.00;96916.38;6174723;23;20219;-74
2022/09/26 07:11:12;;;;;;;12.98;9.93;;;8.90;99.90;;;7.94;100.00;96907.53;6175178;23;20554;-75
2022/09/26 07:14:00;;;;;;;16.27;11.20;;;9.00;99.90;;;8.11;100.00;96904.22;6174848;23;20026;-74
2022/09/26 07:16:28;;;;;;;15.52;10.55;;;9.10;99.90;;;8.10;100.00;96897.38;6174015;23;20031;-75
2022/09/26 07:18:56;;;;;;;16.52;11.55;;;9.20;99.90;;;7.95;100.00;96902.28;6177060;23;20021;-74
2022/09/26 07:21:24;;;;;;;16.10;11.25;;;9.20;99.90;;;8.13;100.00;96894.63;6149236;23;20088;-75
2022/09/26 07:23:57;;;;;;;15.48;12.02;;;9.40;99.90;;;8.33;100.00;96893.78;6172085;23;20451;-75
2022/09/26 07:26:23;;;;;;;;;;;9.50;99.90;;;8.31;100.00;96895.59;6149900;23;20147;-75
2022/09/26 07:28:50;;;;;;;15.80;9.90;;;9.50;99.90;;;8.10;100.00;96893.03;6177310;23;20030;-75
2022/09/26 07:31:24;;;;;;;13.82;9.20;;;9.60;99.90;;;8.35;100.00;96886.78;6175045;23;20017;-74
2022/09/26 07:33:51;;;;;;;10.07;7.80;;;9.70;99.90;;;8.45;100.00;96875.13;6174616;23;20032;-74
2022/09/26 07:36:19;;;;;;;14.00;9.25;;;9.90;99.90;;;8.44;100.00;96875.19;6174155;23;20052;-74
2022/09/26 07:38:48;;;;;;;16.25;10.35;;;10.00;99.90;;;8.54;100.00;96868.72;6176043;23;20064;-74
2022/09/26 07:41:16;;;;;;;15.60;9.32;;;10.00;99.90;;;8.28;100.00;96868.13;6173569;23;20017;-74
2022/09/26 07:43:43;;;;;;;16.33;9.27;;;10.00;99.90;;;8.40;100.00;96860.72;6174715;23;20048;-74
2022/09/26 07:52:01;;;;;;;11.75;7.63;;;9.80;99.90;;;8.72;100.00;96849.75;6174794;23;20028;-75
2022/09/26 07:54:28;;;;;;;14.02;8.95;;;10.00;99.90;;;8.50;100.00;96847.31;6173255;23;20025;-74
2022/09/26 07:56:55;;;;;;;12.48;8.57;;;10.10;99.90;;;8.65;100.00;96840.59;6150262;23;20028;-74
2022/09/26 07:59:22;;;;;;;12.35;7.80;;;10.20;99.90;;;8.60;100.00;96834.81;6185436;23;20013;-74
2022/09/26 08:01:53;;;;;;;12.10;7.28;;;10.10;99.90;;;8.77;100.00;96834.84;6173327;23;20352;-74
2022/09/26 08:04:20;;;;;;;12.07;7.90;;;10.20;99.90;;;8.73;100.00;96822.13;6147838;23;20107;-74
2022/09/26 08:06:48;;;;;;;9.70;7.15;;;10.30;99.90;;;8.68;100.00;96832.69;6174946;23;20028;-74
2022/09/26 08:09:16;;;;;;;14.45;7.65;;;10.30;99.90;;;8.91;100.00;96823.81;6183853;23;20028;-74
2022/09/26 08:11:43;;;;;;;12.35;7.88;;;10.30;99.90;;;8.74;100.00;96821.22;6175318;23;20075;-74
2022/09/26 08:14:11;;;;;;;9.98;7.03;;;10.30;99.90;;;9.08;100.00;96814.44;6173777;23;20091;-74
2022/09/26 08:16:40;;;;;;;11.02;7.22;;;10.40;99.90;;;9.32;100.00;96805.44;6158668;23;20036;-74
2022/09/26 08:19:11;;;;;;;9.73;6.82;;;10.40;99.90;;;9.75;100.00;96797.25;6176218;23;20043;-74
2022/09/26 08:21:38;;;;;;;10.52;5.63;;;10.70;99.90;;;9.47;100.00;96793.47;6148396;23;20598;-74
2022/09/26 08:24:05;;;;;;;10.70;5.93;;;11.00;99.90;;;9.89;100.00;96791.34;6173694;23;20310;-74
2022/09/26 08:26:32;;;;;;;9.32;5.82;;;11.30;99.90;;;9.95;100.00;96786.69;6173693;23;20021;-74
2022/09/26 08:29:00;;;;;;;8.57;5.90;;;11.60;99.90;;;10.15;100.00;96780.44;6175579;23;20024;-74
2022/09/26 08:31:27;;;;;;;8.95;5.05;;;11.90;99.90;;;9.98;100.00;96764.94;6174392;23;20216;-74
2022/09/26 08:33:54;;;;;;;11.48;5.30;;;12.00;99.90;;;9.92;100.00;96765.25;6174016;23;20420;-74
2022/09/26 08:36:21;;;;;;;10.77;5.97;;;11.90;99.90;;;9.62;100.00;96753.84;6175679;23;20028;-74
2022/09/26 08:38:49;;;;;;;12.52;5.38;;;11.90;99.90;;;9.63;100.00;96744.31;6148581;23;20025;-74
2022/09/26 08:42:01;;;;;;;7.88;4.88;;;11.70;99.90;;;9.95;100.00;96742.59;6176333;23;20075;-74
2022/09/26 08:44:55;;;;;;;9.02;4.68;;;11.70;99.90;;;10.01;100.00;96725.88;6172358;23;20024;-74
2022/09/26 08:47:49;;;;;;;11.32;5.18;;;11.50;99.90;;;9.79;100.00;96740.00;6175845;23;20021;-74
2022/09/26 08:50:31;;;;;;;8.55;4.78;;;11.40;99.90;;;10.08;100.00;96731.56;6149617;23;20017;-74
2022/09/26 08:53:12;;;;;;;10.50;4.57;;;11.30;99.90;;;9.78;100.00;96729.69;6174130;23;20336;-75
2022/09/26 08:55:43;;;;;;;10.82;5.65;;;11.30;99.90;;;9.89;100.00;96722.19;6172486;23;20021;-74
2022/09/26 08:58:21;;;;;;;6.93;4.68;;;11.40;99.90;;;9.84;100.00;96721.59;6173481;23;20353;-74
2022/09/26 09:01:16;;;;;;;12.07;5.28;;;11.40;99.90;;;9.86;100.00;96721.53;6150650;23;20064;-74
2022/09/26 09:04:01;;;;;;;9.35;5.75;;;11.50;99.90;;;10.22;100.00;96721.31;6173439;23;20021;-74
2022/09/26 09:06:28;;;;;;;8.88;5.00;;;11.80;99.90;;;10.64;100.00;96699.09;6148460;23;20044;-74
2022/09/26 09:08:56;;;;;;;6.88;4.43;;;12.30;99.90;;;10.89;100.00;96675.97;6173500;23;20735;-74
2022/09/26 09:12:07;;;;;;;12.88;5.05;;;12.30;99.90;;;10.67;100.00;96673.81;6183522;23;20100;-74
2022/09/26 09:14:59;;;;;;;7.32;5.00;;;12.30;99.90;;;10.32;100.00;96673.19;6175597;23;20028;-74
2022/09/26 09:18:07;;;;;;;11.80;4.95;;;12.30;99.90;;;10.61;100.00;96655.16;6154035;23;20357;-74
2022/09/26 09:21:26;;;;;;;8.10;4.88;;;12.10;99.90;;;10.66;100.00;96643.56;6175905;23;20021;-74
2022/09/26 09:24:40;;;;;;;7.13;4.80;;;12.30;99.90;;;10.95;100.00;96645.38;6111045;23;20070;-74
2022/09/26 09:27:31;;;;;;;6.45;4.88;;;12.60;99.90;;;11.12;100.00;96641.81;6171850;23;20031;-74
2022/09/26 09:30:39;;;;;;;7.32;3.72;;;12.70;99.90;;;10.68;100.00;96641.72;6172587;23;20084;-74
2022/09/26 09:33:21;;;;;;;6.75;4.60;;;12.40;99.90;;;10.72;100.00;96629.41;6148454;23;20376;-75
2022/09/26 09:35:54;;;;;;;9.40;4.18;;;12.50;99.90;;;10.95;100.00;96615.09;6183609;23;20025;-75
2022/09/26 09:38:33;;;;;;;8.23;3.85;;;12.40;99.90;;;10.99;100.00;96611.38;6173549;23;20040;-74
2022/09/26 09:41:38;;;;;;;7.68;3.80;;;12.60;99.90;;;10.98;100.00;96617.50;6170191;23;20027;-75
2022/09/26 09:44:35;;;;;;;7.60;3.78;;;13.00;99.90;;;11.93;100.00;96595.25;6166741;23;20469;-74
2022/09/26 09:47:12;;;;;;;5.75;3.72;;;13.30;99.90;;;10.95;100.00;96616.81;6169675;23;20032;-76
2022/09/26 09:49:41;;;;;;;6.07;3.10;;;13.20;99.90;;;11.32;100.00;96596.44;6171324;23;20487;-75
2022/09/26 09:52:18;;;;;;;4.68;2.67;;;13.30;99.90;;;11.45;100.00;96584.38;6169213;23;20021;-74
2022/09/26 09:55:15;;;;;;;7.85;3.20;;;13.20;99.90;;;11.32;100.00;96581.69;6168271;23;20087;-74
2022/09/26 09:58:16;;;;;;;13.48;3.40;;;13.00;99.90;;;10.94;100.00;96589.19;6182158;23;20021;-75
2022/09/26 10:00:59;;;;;;;10.15;3.90;;;12.90;99.90;;;10.87;100.00;96586.13;6171025;23;20036;-75
2022/09/26 10:03:54;;;;;;;4.68;2.42;;;12.90;99.90;;;11.70;100.00;96568.09;6171770;23;20139;-75
2022/09/26 10:06:21;;;;;;;7.20;2.88;;;13.00;99.90;;;11.25;100.00;96570.00;6171621;23;20027;-75
2022/09/26 10:09:45;;;;;;;6.28;2.10;;;13.10;99.90;;;11.20;100.00;96559.91;6171480;23;20357;-75
2022/09/26 10:12:18;;;;;;;;;;;12.80;99.90;;;11.16;100.00;96549.78;6150041;23;20079;-74
2022/09/26 10:14:55;;;;;;;6.07;2.35;;;12.90;99.90;;;11.42;100.00;96542.97;6172932;23;19924;-75
2022/09/26 10:17:23;;;;;;;8.02;2.33;;;12.80;99.90;;;11.27;100.00;96557.75;6157739;23;20021;-75
2022/09/26 10:19:50;;;;;;;7.82;2.88;;;12.70;99.90;;;11.21;100.00;96548.56;6173724;23;20021;-75
2022/09/26 10:22:41;;;;;;;6.68;2.63;;;12.80;99.90;;;11.29;100.00;96537.72;6173595;23;20112;-74
2022/09/26 10:25:19;;;;;;;8.45;2.80;;;12.90;99.90;;;11.30;100.00;96537.59;6172744;23;20523;-75
2022/09/26 10:27:52;;;;;;;5.00;1.63;;;12.80;99.90;;;11.35;100.00;96546.88;6173826;23;20021;-74
2022/09/26 10:30:18;;;;;;;3.88;1.95;;;12.90;99.90;;;11.50;100.00;96533.78;6172390;23;20029;-74
2022/09/26 10:32:54;;;;;;;3.75;1.80;;;12.90;99.90;;;11.26;100.00;96546.50;6173977;23;20025;-75
2022/09/26 10:35:40;;;;;;;7.28;2.50;;;13.00;99.90;;;11.63;100.00;96528.66;6170432;23;20124;-74
2022/09/26 10:38:23;;;;;;;4.18;1.60;;;13.30;99.90;;;11.98;100.00;96517.75;6172056;23;20063;-75
2022/09/26 10:40:58;;;;;;;5.72;2.00;;;13.30;99.90;;;11.72;100.00;96509.84;6172403;23;20016;-74
2022/09/26 10:43:27;;;;;;;5.05;1.55;;;13.60;99.90;;;12.43;100.00;96513.06;6176410;23;20029;-72
2022/09/26 10:46:03;;;;;;;7.00;1.77;;;13.80;99.90;;;12.75;100.00;96500.47;6171370;23;20021;-73
2022/09/26 10:48:46;;;;;;;7.22;2.08;;;14.00;99.90;;;12.18;100.00;96515.59;6173051;23;20748;-73
2022/09/26 10:51:26;;;;;;;7.10;1.73;;;14.20;99.90;;;12.43;100.00;96505.25;6171926;23;20056;-72
2022/09/26 10:54:13;;;;;;;5.18;1.83;;;14.20;99.90;;;12.58;100.00;96495.56;6172533;23;20025;-71
2022/09/26 10:56:46;;;;;;;5.60;1.88;;;14.40;99.90;;;12.40;100.00;96494.22;6172457;23;20055;-73
2022/09/26 10:59:15;;;;;;;7.43;2.42;;;14.60;99.90;;;13.13;100.00;96488.31;6173652;23;20025;-73
2022/09/26 11:01:47;;;;;;;3.75;1.67;;;14.80;99.90;;;12.65;100.00;96503.78;6171317;23;20117;-73